createdAt,value
2022-08-19T00:00:15.154Z,19.30
2022-08-19T00:03:04.370Z,19.30
2022-08-19T00:05:32.675Z,19.10
2022-08-19T00:08:00.426Z,19.10
2022-08-19T00:10:28.167Z,19.10
2022-08-19T00:12:55.708Z,19.20
2022-08-19T00:15:24.092Z,19.10
2022-08-19T00:17:51.920Z,19.00
2022-08-19T00:20:22.917Z,19.10
2022-08-19T00:22:51.439Z,19.10
2022-08-19T00:25:30.085Z,19.20
2022-08-19T00:28:00.487Z,19.20
2022-08-19T00:30:30.762Z,19.20
2022-08-19T00:32:59.929Z,19.20
2022-08-19T00:35:28.742Z,19.10
2022-08-19T00:37:57.246Z,19.10
2022-08-19T00:40:26.081Z,19.10
2022-08-19T00:42:54.916Z,19.10
2022-08-19T00:45:29.179Z,19.10
2022-08-19T00:47:57.028Z,19.00
2022-08-19T00:50:24.972Z,19.10
2022-08-19T00:52:53.577Z,19.00
2022-08-19T00:55:29.068Z,19.00
2022-08-19T00:58:09.141Z,18.90
2022-08-19T01:00:38.338Z,18.90
2022-08-19T01:03:16.055Z,18.80
2022-08-19T01:05:49.993Z,18.80
2022-08-19T01:08:20.447Z,18.60
2022-08-19T01:10:56.210Z,18.70
2022-08-19T01:13:49.529Z,18.60
2022-08-19T01:16:22.413Z,18.70
2022-08-19T01:18:50.739Z,18.60
2022-08-19T01:21:41.514Z,18.70
2022-08-19T01:24:09.171Z,18.60
2022-08-19T01:26:44.752Z,18.60
2022-08-19T01:29:15.034Z,18.60
2022-08-19T01:31:43.119Z,18.60
2022-08-19T01:34:11.509Z,18.60
2022-08-19T01:36:48.533Z,18.80
2022-08-19T01:39:22.910Z,18.80
2022-08-19T01:41:56.534Z,18.70
2022-08-19T01:44:25.331Z,18.70
2022-08-19T01:46:53.674Z,18.70
2022-08-19T01:49:26.244Z,18.60
2022-08-19T01:51:55.846Z,18.60
2022-08-19T01:54:27.486Z,18.60
2022-08-19T01:57:08.033Z,18.60
2022-08-19T01:59:37.563Z,18.60
2022-08-19T02:02:09.501Z,18.70
2022-08-19T02:04:39.116Z,18.70
2022-08-19T02:07:09.152Z,18.80
2022-08-19T02:09:37.043Z,18.90
2022-08-19T02:12:07.672Z,19.00
2022-08-19T02:14:37.588Z,19.10
2022-08-19T02:17:05.337Z,19.20
2022-08-19T02:19:33.730Z,19.20
2022-08-19T02:22:02.063Z,19.30
2022-08-19T02:24:29.820Z,19.30
2022-08-19T02:26:59.753Z,19.30
2022-08-19T02:29:27.603Z,19.30
2022-08-19T02:31:55.165Z,19.30
2022-08-19T02:34:23.055Z,19.30
2022-08-19T02:36:51.931Z,19.30
2022-08-19T02:39:20.556Z,19.20
2022-08-19T02:41:48.074Z,19.20
2022-08-19T02:44:30.663Z,19.00
2022-08-19T02:46:59.282Z,19.00
2022-08-19T02:49:27.158Z,19.00
2022-08-19T02:51:55.414Z,19.10
2022-08-19T02:54:23.177Z,19.10
2022-08-19T02:56:50.882Z,19.10
2022-08-19T02:59:18.440Z,19.00
2022-08-19T03:01:49.547Z,18.90
2022-08-19T03:04:17.983Z,18.90
2022-08-19T03:06:48.658Z,18.80
2022-08-19T03:09:18.197Z,18.70
2022-08-19T03:11:46.406Z,18.70
2022-08-19T03:14:16.072Z,18.70
2022-08-19T03:16:48.548Z,18.80
2022-08-19T03:19:22.248Z,18.80
2022-08-19T03:21:51.173Z,18.80
2022-08-19T03:24:20.070Z,18.70
2022-08-19T03:26:53.073Z,18.70
2022-08-19T03:29:29.475Z,18.60
2022-08-19T03:32:05.717Z,18.60
2022-08-19T03:34:38.385Z,18.60
2022-08-19T03:37:11.499Z,18.50
2022-08-19T03:39:41.479Z,18.50
2022-08-19T03:42:38.594Z,18.50
2022-08-19T03:44:59.529Z,18.50
2022-08-19T03:47:27.123Z,18.50
2022-08-19T03:49:54.831Z,18.50
2022-08-19T03:52:22.570Z,18.50
2022-08-19T03:54:50.267Z,18.60
2022-08-19T03:57:17.799Z,18.60
2022-08-19T03:59:45.859Z,18.60
2022-08-19T04:02:14.325Z,18.60
2022-08-19T04:04:44.669Z,18.60
2022-08-19T04:07:17.206Z,18.70
2022-08-19T04:09:45.199Z,18.70
2022-08-19T04:12:12.839Z,18.80
2022-08-19T04:14:40.662Z,18.80
2022-08-19T04:17:08.555Z,18.80
2022-08-19T04:19:38.194Z,18.90
2022-08-19T04:22:07.841Z,19.00
2022-08-19T04:24:36.633Z,19.00
2022-08-19T04:27:07.092Z,19.00
2022-08-19T04:29:35.302Z,19.20
2022-08-19T04:32:08.789Z,19.30
2022-08-19T04:35:02.241Z,19.40
2022-08-19T04:37:29.532Z,19.60
2022-08-19T04:40:26.645Z,19.90
2022-08-19T04:42:54.967Z,20.10
2022-08-19T04:45:23.748Z,20.20
2022-08-19T04:48:27.356Z,20.20
2022-08-19T04:50:47.228Z,20.20
2022-08-19T04:53:14.828Z,20.30
2022-08-19T04:55:43.630Z,20.40
2022-08-19T04:58:11.501Z,20.40
2022-08-19T05:00:41.198Z,21.20
2022-08-19T05:03:09.142Z,21.10
2022-08-19T05:05:44.806Z,21.10
2022-08-19T05:08:30.786Z,21.10
2022-08-19T05:10:59.741Z,21.20
2022-08-19T05:13:28.336Z,23.00
2022-08-19T05:15:59.135Z,23.50
2022-08-19T05:18:46.646Z,23.20
2022-08-19T05:21:36.949Z,22.90
2022-08-19T05:24:09.605Z,22.70
2022-08-19T05:26:44.222Z,23.80
2022-08-19T05:29:12.208Z,23.90
2022-08-19T05:31:41.715Z,23.00
2022-08-19T05:34:20.151Z,23.10
2022-08-19T05:36:49.696Z,23.90
2022-08-19T05:39:21.558Z,24.30
2022-08-19T05:42:00.357Z,24.70
2022-08-19T05:44:32.459Z,24.70
2022-08-19T05:47:03.199Z,24.80
2022-08-19T05:49:33.054Z,25.30
2022-08-19T05:52:08.679Z,25.40
2022-08-19T05:54:41.225Z,25.80
2022-08-19T05:57:13.312Z,25.20
2022-08-19T05:59:41.229Z,24.60
2022-08-19T06:02:09.065Z,24.60
2022-08-19T06:04:36.908Z,25.80
2022-08-19T06:07:12.719Z,27.00
2022-08-19T06:09:43.738Z,28.10
2022-08-19T06:12:32.712Z,28.60
2022-08-19T06:15:11.324Z,28.50
2022-08-19T06:17:39.387Z,28.90
2022-08-19T06:20:13.041Z,28.90
2022-08-19T06:22:44.453Z,29.40
2022-08-19T06:25:15.283Z,29.50
2022-08-19T06:28:14.517Z,30.00
2022-08-19T06:30:31.936Z,30.30
2022-08-19T06:32:59.867Z,30.70
2022-08-19T06:35:27.990Z,30.70
2022-08-19T06:37:56.761Z,30.90
2022-08-19T06:40:24.543Z,31.20
2022-08-19T06:42:54.155Z,29.70
2022-08-19T06:45:34.472Z,28.50
2022-08-19T06:48:03.348Z,27.70
2022-08-19T06:50:31.398Z,28.20
2022-08-19T06:53:03.605Z,28.00
2022-08-19T06:55:33.384Z,27.50
2022-08-19T06:58:04.881Z,27.40
2022-08-19T07:00:33.364Z,28.30
2022-08-19T07:03:05.970Z,28.90
2022-08-19T07:05:45.773Z,29.10
2022-08-19T07:08:15.478Z,28.70
2022-08-19T07:10:47.740Z,30.50
2022-08-19T07:13:16.049Z,31.60
2022-08-19T07:15:44.171Z,32.90
2022-08-19T07:18:12.148Z,33.40
2022-08-19T07:20:42.034Z,33.70
2022-08-19T07:23:16.008Z,33.60
2022-08-19T07:25:44.988Z,33.40
2022-08-19T07:28:23.985Z,34.00
2022-08-19T07:30:53.705Z,34.50
2022-08-19T07:33:21.850Z,34.60
2022-08-19T07:35:50.863Z,34.50
2022-08-19T07:38:19.252Z,34.20
2022-08-19T07:40:47.319Z,34.00
2022-08-19T07:43:17.766Z,32.60
2022-08-19T07:45:46.662Z,31.60
2022-08-19T07:48:15.506Z,30.80
2022-08-19T07:50:43.779Z,31.30
2022-08-19T07:53:13.332Z,32.90
2022-08-19T07:55:43.797Z,33.50
2022-08-19T07:58:16.485Z,34.20
2022-08-19T08:00:47.142Z,34.60
2022-08-19T08:03:18.425Z,34.90
2022-08-19T08:06:05.922Z,34.90
2022-08-19T08:08:36.722Z,35.20
2022-08-19T08:11:07.763Z,35.30
2022-08-19T08:13:36.430Z,35.10
2022-08-19T08:16:10.186Z,35.60
2022-08-19T08:18:43.470Z,35.60
2022-08-19T08:21:18.850Z,36.10
2022-08-19T08:23:46.754Z,35.20
2022-08-19T08:26:16.112Z,35.20
2022-08-19T08:28:47.765Z,35.80
2022-08-19T08:31:15.956Z,35.10
2022-08-19T08:33:44.473Z,35.10
2022-08-19T08:36:17.396Z,34.80
2022-08-19T08:38:46.919Z,34.40
2022-08-19T08:41:59.317Z,34.40
2022-08-19T08:44:44.306Z,34.50
2022-08-19T08:47:20.398Z,34.80
2022-08-19T08:50:20.827Z,34.90
2022-08-19T08:52:57.026Z,36.10
2022-08-19T08:55:37.068Z,35.80
2022-08-19T08:58:34.050Z,35.70
2022-08-19T09:01:01.769Z,35.60
2022-08-19T09:03:31.435Z,35.50
2022-08-19T09:06:12.012Z,36.70
2022-08-19T09:08:58.989Z,36.30
2022-08-19T09:11:51.200Z,36.20
2022-08-19T09:14:49.267Z,36.00
2022-08-19T09:17:17.552Z,35.80
2022-08-19T09:19:58.052Z,35.20
2022-08-19T09:22:27.920Z,35.40
2022-08-19T09:24:57.313Z,34.80
2022-08-19T09:27:43.125Z,34.00
2022-08-19T09:30:19.363Z,35.40
2022-08-19T09:32:47.285Z,36.60
2022-08-19T09:35:24.974Z,37.00
2022-08-19T09:37:57.482Z,36.90
2022-08-19T09:40:35.399Z,37.00
2022-08-19T09:43:11.463Z,37.70
2022-08-19T09:45:41.994Z,37.00
2022-08-19T09:48:11.697Z,37.20
2022-08-19T09:50:51.686Z,37.60
2022-08-19T09:53:25.622Z,38.00
2022-08-19T09:55:56.442Z,36.90
2022-08-19T09:58:28.643Z,36.10
2022-08-19T10:00:59.507Z,36.30
2022-08-19T10:03:29.918Z,37.70
2022-08-19T10:06:01.599Z,38.40
2022-08-19T10:08:37.756Z,37.90
2022-08-19T10:11:28.747Z,37.40
2022-08-19T10:13:54.880Z,38.30
2022-08-19T10:16:26.225Z,37.50
2022-08-19T10:19:00.416Z,37.20
2022-08-19T10:21:35.504Z,37.70
2022-08-19T10:24:07.161Z,36.50
2022-08-19T10:26:47.511Z,34.80
2022-08-19T10:29:32.322Z,33.90
2022-08-19T10:32:09.956Z,35.00
2022-08-19T10:34:48.151Z,37.10
2022-08-19T10:37:28.957Z,37.30
2022-08-19T10:40:00.001Z,37.90
2022-08-19T10:42:27.822Z,37.40
2022-08-19T10:44:55.794Z,36.50
2022-08-19T10:47:26.339Z,36.40
2022-08-19T10:50:18.811Z,37.30
2022-08-19T10:52:50.717Z,37.20
2022-08-19T10:55:46.647Z,37.10
2022-08-19T10:58:27.135Z,37.40
2022-08-19T11:00:58.263Z,37.70
2022-08-19T11:03:30.503Z,37.60
2022-08-19T11:06:03.931Z,38.20
2022-08-19T11:08:32.201Z,38.40
2022-08-19T11:11:04.267Z,38.20
2022-08-19T11:13:37.074Z,38.30
2022-08-19T11:16:19.649Z,38.40
2022-08-19T11:18:52.537Z,38.00
2022-08-19T11:21:26.998Z,38.60
2022-08-19T11:23:59.716Z,38.50
2022-08-19T11:26:31.967Z,38.70
2022-08-19T11:29:01.543Z,36.70
2022-08-19T11:31:36.443Z,36.10
2022-08-19T11:34:08.343Z,37.50
2022-08-19T11:36:40.628Z,37.70
2022-08-19T11:39:10.886Z,38.10
2022-08-19T11:41:39.170Z,38.30
2022-08-19T11:44:08.884Z,37.90
2022-08-19T11:46:39.013Z,37.30
2022-08-19T11:49:13.768Z,37.50
2022-08-19T11:51:44.196Z,37.30
2022-08-19T11:54:15.894Z,37.30
2022-08-19T11:56:45.329Z,36.60
2022-08-19T11:59:14.967Z,35.50
2022-08-19T12:01:43.820Z,36.40
2022-08-19T12:04:12.230Z,37.50
2022-08-19T12:06:42.699Z,38.30
2022-08-19T12:09:12.127Z,38.20
2022-08-19T12:11:42.784Z,36.40
2022-08-19T12:14:14.736Z,34.80
2022-08-19T12:16:49.140Z,35.70
2022-08-19T12:19:22.513Z,36.70
2022-08-19T12:21:51.798Z,37.60
2022-08-19T12:24:24.313Z,36.10
2022-08-19T12:26:54.015Z,37.00
2022-08-19T12:29:24.372Z,37.10
2022-08-19T12:31:52.657Z,37.30
2022-08-19T12:34:21.328Z,37.90
2022-08-19T12:36:50.478Z,37.80
2022-08-19T12:39:18.893Z,35.60
2022-08-19T12:41:54.306Z,34.00
2022-08-19T12:44:29.607Z,32.60
2022-08-19T12:47:00.958Z,31.70
2022-08-19T12:49:53.407Z,31.40
2022-08-19T12:52:23.542Z,32.90
2022-08-19T12:54:55.603Z,33.90
2022-08-19T12:57:32.673Z,33.70
2022-08-19T13:00:09.022Z,34.00
2022-08-19T13:02:39.341Z,35.00
2022-08-19T13:05:12.331Z,35.20
2022-08-19T13:07:42.137Z,34.40
2022-08-19T13:10:15.390Z,33.90
2022-08-19T13:12:46.755Z,34.60
2022-08-19T13:15:23.790Z,35.80
2022-08-19T13:17:54.899Z,36.20
2022-08-19T13:20:24.135Z,36.10
2022-08-19T13:22:52.565Z,36.50
2022-08-19T13:25:21.007Z,36.70
2022-08-19T13:27:51.901Z,35.40
2022-08-19T13:30:40.432Z,35.20
2022-08-19T13:33:12.524Z,35.50
2022-08-19T13:35:58.953Z,35.40
2022-08-19T13:38:27.724Z,34.20
2022-08-19T13:40:56.812Z,32.70
2022-08-19T13:43:28.914Z,32.00
2022-08-19T13:45:57.730Z,31.80
2022-08-19T13:48:28.004Z,32.50
2022-08-19T13:50:56.716Z,32.70
2022-08-19T13:53:24.643Z,33.00
2022-08-19T13:55:54.561Z,32.60
2022-08-19T13:58:23.282Z,32.50
2022-08-19T14:00:51.427Z,32.80
2022-08-19T14:03:19.347Z,33.10
2022-08-19T14:05:47.762Z,34.00
2022-08-19T14:08:19.382Z,35.30
2022-08-19T14:10:47.830Z,34.60
2022-08-19T14:13:22.886Z,34.10
2022-08-19T14:15:52.034Z,34.30
2022-08-19T14:18:20.112Z,35.90
2022-08-19T14:20:47.857Z,36.30
2022-08-19T14:23:15.672Z,36.70
2022-08-19T14:25:44.860Z,34.60
2022-08-19T14:28:12.576Z,34.30
2022-08-19T14:30:40.528Z,34.10
2022-08-19T14:33:13.462Z,33.90
2022-08-19T14:35:54.356Z,33.30
2022-08-19T14:38:32.721Z,33.40
2022-08-19T14:41:21.256Z,33.10
2022-08-19T14:43:55.890Z,32.60
2022-08-19T14:46:35.434Z,32.40
2022-08-19T14:49:09.753Z,31.90
2022-08-19T14:51:38.002Z,31.90
2022-08-19T14:54:06.070Z,32.10
2022-08-19T14:56:34.726Z,32.00
2022-08-19T14:59:02.831Z,32.00
2022-08-19T15:01:30.812Z,31.60
2022-08-19T15:03:59.073Z,31.50
2022-08-19T15:06:28.202Z,31.60
2022-08-19T15:09:00.655Z,31.80
2022-08-19T15:11:33.946Z,32.00
2022-08-19T15:14:02.571Z,32.20
2022-08-19T15:16:30.408Z,32.50
2022-08-19T15:19:01.002Z,32.60
2022-08-19T15:21:31.431Z,32.80
2022-08-19T15:24:01.933Z,33.00
2022-08-19T15:26:33.281Z,32.40
2022-08-19T15:29:04.280Z,31.60
2022-08-19T15:31:38.151Z,31.00
2022-08-19T15:34:07.751Z,30.70
2022-08-19T15:36:37.582Z,30.70
2022-08-19T15:39:22.481Z,30.70
2022-08-19T15:41:51.181Z,30.80
2022-08-19T15:44:22.682Z,30.70
2022-08-19T15:46:51.526Z,30.60
2022-08-19T15:49:22.038Z,30.50
2022-08-19T15:51:52.112Z,30.40
2022-08-19T15:54:22.055Z,30.20
2022-08-19T15:57:11.058Z,30.10
2022-08-19T16:00:00.762Z,29.70
2022-08-19T16:02:53.753Z,29.50
2022-08-19T16:05:50.736Z,29.30
2022-08-19T16:08:19.327Z,29.20
2022-08-19T16:10:47.063Z,29.20
2022-08-19T16:13:15.294Z,29.20
2022-08-19T16:15:44.767Z,29.20
2022-08-19T16:18:12.768Z,29.30
2022-08-19T16:20:41.184Z,29.30
2022-08-19T16:23:09.364Z,29.30
2022-08-19T16:25:37.523Z,29.30
2022-08-19T16:28:07.994Z,29.30
2022-08-19T16:31:01.763Z,29.30
2022-08-19T16:33:30.373Z,29.20
2022-08-19T16:36:07.031Z,29.30
2022-08-19T16:38:37.505Z,29.20
2022-08-19T16:41:06.713Z,29.20
2022-08-19T16:43:41.781Z,29.20
2022-08-19T16:46:11.034Z,29.20
2022-08-19T16:48:43.199Z,29.20
2022-08-19T16:51:13.401Z,29.10
2022-08-19T16:53:44.566Z,29.00
2022-08-19T16:56:13.249Z,29.00
2022-08-19T16:58:42.789Z,28.80
2022-08-19T17:01:11.531Z,28.80
2022-08-19T17:03:41.380Z,28.70
2022-08-19T17:06:21.163Z,28.70
2022-08-19T17:08:52.192Z,28.70
2022-08-19T17:11:21.363Z,28.60
2022-08-19T17:13:50.999Z,28.50
2022-08-19T17:16:27.828Z,28.40
2022-08-19T17:19:02.244Z,28.30
2022-08-19T17:21:34.282Z,28.10
2022-08-19T17:24:07.489Z,28.00
2022-08-19T17:26:37.978Z,27.90
2022-08-19T17:29:06.593Z,27.80
2022-08-19T17:31:35.200Z,27.80
2022-08-19T17:34:04.656Z,27.70
2022-08-19T17:36:34.281Z,27.60
2022-08-19T17:39:05.472Z,27.40
2022-08-19T17:41:34.477Z,27.30
2022-08-19T17:44:04.591Z,27.20
2022-08-19T17:46:33.157Z,27.10
2022-08-19T17:49:02.086Z,27.00
2022-08-19T17:51:35.774Z,26.90
2022-08-19T17:54:06.781Z,26.80
2022-08-19T17:56:35.032Z,26.80
2022-08-19T17:59:03.182Z,26.70
2022-08-19T18:01:48.396Z,26.70
2022-08-19T18:04:26.688Z,26.50
2022-08-19T18:06:58.520Z,26.40
2022-08-19T18:09:41.381Z,26.50
2022-08-19T18:12:18.134Z,26.50
2022-08-19T18:14:47.550Z,26.40
2022-08-19T18:17:19.417Z,26.40
2022-08-19T18:19:48.476Z,26.30
2022-08-19T18:22:30.708Z,26.20
2022-08-19T18:24:59.362Z,26.20
2022-08-19T18:27:29.033Z,26.00
2022-08-19T18:30:00.118Z,26.00
2022-08-19T18:32:34.812Z,25.90
2022-08-19T18:35:16.380Z,25.90
2022-08-19T18:37:46.265Z,26.00
2022-08-19T18:40:39.276Z,26.00
2022-08-19T18:43:27.762Z,26.00
2022-08-19T18:46:15.400Z,26.00
2022-08-19T18:49:04.827Z,26.10
2022-08-19T18:51:34.570Z,26.10
2022-08-19T18:54:04.036Z,26.10
2022-08-19T18:56:33.537Z,26.10
2022-08-19T18:59:03.238Z,26.20
2022-08-19T19:01:37.144Z,26.30
2022-08-19T19:04:14.180Z,26.30
2022-08-19T19:06:44.780Z,26.30
2022-08-19T19:09:25.189Z,26.40
2022-08-19T19:11:58.780Z,26.40
2022-08-19T19:14:50.543Z,26.40
2022-08-19T19:17:25.863Z,26.40
2022-08-19T19:19:54.354Z,26.50
2022-08-19T19:22:24.955Z,26.50
2022-08-19T19:24:56.715Z,26.50
2022-08-19T19:27:25.539Z,26.50
2022-08-19T19:29:53.704Z,26.40
2022-08-19T19:32:28.683Z,26.30
2022-08-19T19:34:56.971Z,26.20
2022-08-19T19:37:24.868Z,26.20
2022-08-19T19:39:53.359Z,26.10
2022-08-19T19:42:23.922Z,26.10
2022-08-19T19:44:56.588Z,26.00
2022-08-19T19:47:26.151Z,26.00
2022-08-19T19:52:46.824Z,25.90
2022-08-19T19:55:18.661Z,25.90
2022-08-19T19:57:50.575Z,25.90
2022-08-19T20:00:20.179Z,25.80
2022-08-19T20:02:50.988Z,25.80
2022-08-19T20:05:21.617Z,25.70
2022-08-19T20:08:10.955Z,25.60
2022-08-19T20:10:43.543Z,25.60
2022-08-19T20:13:15.690Z,25.60
2022-08-19T20:15:44.600Z,25.50
2022-08-19T20:18:16.603Z,25.40
2022-08-19T20:20:50.313Z,25.40
2022-08-19T20:23:21.871Z,25.40
2022-08-19T20:25:51.603Z,25.30
2022-08-19T20:28:23.012Z,25.20
2022-08-19T20:30:51.902Z,25.20
2022-08-19T20:33:20.925Z,25.20
2022-08-19T20:35:49.393Z,25.20
2022-08-19T20:38:17.948Z,25.10
2022-08-19T20:40:46.634Z,25.10
2022-08-19T20:43:15.363Z,25.10
2022-08-19T20:45:44.285Z,25.00
2022-08-19T20:48:13.914Z,25.10
2022-08-19T20:50:42.977Z,25.10
2022-08-19T20:53:19.678Z,25.10
2022-08-19T20:55:49.966Z,25.00
2022-08-19T20:58:22.500Z,24.90
2022-08-19T21:00:55.143Z,24.80
2022-08-19T21:03:28.283Z,24.80
2022-08-19T21:05:58.090Z,24.80
2022-08-19T21:08:29.667Z,24.80
2022-08-19T21:10:59.314Z,24.80
2022-08-19T21:13:27.784Z,24.80
2022-08-19T21:15:56.376Z,24.70
2022-08-19T21:18:27.116Z,24.60
2022-08-19T21:20:56.602Z,24.60
2022-08-19T21:23:29.446Z,24.60
2022-08-19T21:26:00.849Z,24.60
2022-08-19T21:28:35.185Z,24.60
2022-08-19T21:31:11.897Z,24.60
2022-08-19T21:33:40.920Z,24.50
2022-08-19T21:36:09.669Z,24.40
2022-08-19T21:38:38.428Z,24.30
2022-08-19T21:41:07.964Z,24.20
2022-08-19T21:43:37.601Z,24.20
2022-08-19T21:46:06.327Z,24.10
2022-08-19T21:48:35.172Z,24.00
2022-08-19T21:52:49.598Z,24.00
2022-08-19T21:55:18.316Z,23.90
2022-08-19T21:57:47.218Z,23.90
2022-08-19T22:00:22.687Z,23.90
2022-08-19T22:02:52.322Z,23.90
2022-08-19T22:05:26.404Z,23.90
2022-08-19T22:07:58.196Z,24.00
2022-08-19T22:10:32.463Z,24.00
2022-08-19T22:13:01.603Z,24.00
2022-08-19T22:15:30.285Z,24.00
2022-08-19T22:17:59.589Z,24.00
2022-08-19T22:20:30.265Z,24.00
2022-08-19T22:23:03.537Z,24.10
2022-08-19T22:25:45.457Z,24.20
2022-08-19T22:28:18.778Z,24.30
2022-08-19T22:30:56.270Z,24.30
2022-08-19T22:33:25.948Z,24.30
2022-08-19T22:35:54.319Z,24.40
2022-08-19T22:38:23.864Z,24.80
2022-08-19T22:40:54.073Z,24.80
2022-08-19T22:43:26.857Z,24.90
2022-08-19T22:45:57.136Z,24.90
2022-08-19T22:48:30.587Z,24.80
2022-08-19T22:51:19.083Z,24.70
2022-08-19T22:53:47.747Z,24.70
2022-08-19T22:56:19.125Z,24.50
2022-08-19T22:58:50.233Z,24.40
2022-08-19T23:01:30.290Z,24.30
2022-08-19T23:04:00.382Z,24.30
2022-08-19T23:06:35.665Z,24.30
2022-08-19T23:09:08.154Z,24.20
2022-08-19T23:11:41.931Z,24.10
2022-08-19T23:14:12.814Z,24.00
2022-08-19T23:16:42.404Z,24.00
2022-08-19T23:19:11.506Z,24.00
2022-08-19T23:21:42.441Z,24.10
2022-08-19T23:24:11.531Z,24.00
2022-08-19T23:26:59.936Z,24.00
2022-08-19T23:29:50.238Z,24.00
2022-08-19T23:32:21.269Z,24.00
2022-08-19T23:34:50.147Z,24.00
2022-08-19T23:37:18.125Z,24.10
2022-08-19T23:39:45.793Z,24.00
2022-08-19T23:42:14.087Z,24.00
2022-08-19T23:44:52.195Z,24.00
2022-08-19T23:47:21.962Z,24.10
2022-08-19T23:49:50.828Z,24.00
2022-08-19T23:52:19.110Z,23.80
2022-08-19T23:54:47.202Z,23.70
2022-08-19T23:57:16.739Z,23.50
2022-08-19T23:59:47.922Z,23.50
